sensor_id;sensor_type;location;lat;lon;timestamp;temperature;humidity
15749;DHT22;7976;52.526;13.326;2023-06-22T00:02:17;22.10;99.90
15749;DHT22;7976;52.526;13.326;2023-06-22T00:04:46;22.10;99.90
15749;DHT22;7976;52.526;13.326;2023-06-22T00:07:12;22.10;99.90
15749;DHT22;7976;52.526;13.326;2023-06-22T00:09:39;22.00;99.90
15749;DHT22;7976;52.526;13.326;2023-06-22T00:12:07;22.00;99.90
15749;DHT22;7976;52.526;13.326;2023-06-22T00:14:34;22.00;99.90
15749;DHT22;7976;52.526;13.326;2023-06-22T00:17:01;21.90;99.90
15749;DHT22;7976;52.526;13.326;2023-06-22T00:19:28;22.00;99.90
15749;DHT22;7976;52.526;13.326;2023-06-22T00:21:57;21.90;99.90
15749;DHT22;7976;52.526;13.326;2023-06-22T00:24:25;21.90;99.90
15749;DHT22;7976;52.526;13.326;2023-06-22T00:26:52;21.90;99.90
15749;DHT22;7976;52.526;13.326;2023-06-22T00:29:19;21.80;99.90
15749;DHT22;7976;52.526;13.326;2023-06-22T00:31:45;21.80;99.90
15749;DHT22;7976;52.526;13.326;2023-06-22T00:34:12;21.80;99.90
15749;DHT22;7976;52.526;13.326;2023-06-22T00:36:39;21.80;99.90
15749;DHT22;7976;52.526;13.326;2023-06-22T00:39:07;21.80;99.90
15749;DHT22;7976;52.526;13.326;2023-06-22T00:41:35;21.70;99.90
15749;DHT22;7976;52.526;13.326;2023-06-22T00:44:04;21.70;99.90
15749;DHT22;7976;52.526;13.326;2023-06-22T00:46:32;21.70;99.90
15749;DHT22;7976;52.526;13.326;2023-06-22T00:48:59;21.70;99.90
15749;DHT22;7976;52.526;13.326;2023-06-22T00:51:27;21.60;99.90
15749;DHT22;7976;52.526;13.326;2023-06-22T00:53:54;21.60;99.90
15749;DHT22;7976;52.526;13.326;2023-06-22T00:56:23;21.60;99.90
15749;DHT22;7976;52.526;13.326;2023-06-22T00:58:51;21.50;99.90
15749;DHT22;7976;52.526;13.326;2023-06-22T01:01:19;21.50;99.90
15749;DHT22;7976;52.526;13.326;2023-06-22T01:03:49;21.40;99.90
15749;DHT22;7976;52.526;13.326;2023-06-22T01:06:21;21.40;99.90
15749;DHT22;7976;52.526;13.326;2023-06-22T01:09:00;21.40;99.90
15749;DHT22;7976;52.526;13.326;2023-06-22T01:11:37;21.30;99.90
15749;DHT22;7976;52.526;13.326;2023-06-22T01:14:14;21.40;99.90
15749;DHT22;7976;52.526;13.326;2023-06-22T01:16:45;21.40;99.90
15749;DHT22;7976;52.526;13.326;2023-06-22T01:19:31;21.30;99.90
15749;DHT22;7976;52.526;13.326;2023-06-22T01:22:05;21.30;99.90
15749;DHT22;7976;52.526;13.326;2023-06-22T01:24:54;21.30;99.90
15749;DHT22;7976;52.526;13.326;2023-06-22T01:27:36;21.30;99.90
15749;DHT22;7976;52.526;13.326;2023-06-22T01:30:16;21.20;99.90
15749;DHT22;7976;52.526;13.326;2023-06-22T01:32:45;21.20;99.90
15749;DHT22;7976;52.526;13.326;2023-06-22T01:35:14;21.20;99.90
15749;DHT22;7976;52.526;13.326;2023-06-22T01:37:42;21.10;99.90
15749;DHT22;7976;52.526;13.326;2023-06-22T01:40:11;21.10;99.90
15749;DHT22;7976;52.526;13.326;2023-06-22T01:42:39;21.10;99.90
15749;DHT22;7976;52.526;13.326;2023-06-22T01:45:07;21.00;99.90
15749;DHT22;7976;52.526;13.326;2023-06-22T01:47:39;21.00;99.90
15749;DHT22;7976;52.526;13.326;2023-06-22T01:50:06;21.00;99.90
15749;DHT22;7976;52.526;13.326;2023-06-22T01:52:33;21.00;99.90
15749;DHT22;7976;52.526;13.326;2023-06-22T01:55:01;21.00;99.90
15749;DHT22;7976;52.526;13.326;2023-06-22T01:57:28;20.90;99.90
15749;DHT22;7976;52.526;13.326;2023-06-22T02:00:00;20.90;99.90
15749;DHT22;7976;52.526;13.326;2023-06-22T02:02:41;20.90;99.90
15749;DHT22;7976;52.526;13.326;2023-06-22T02:05:17;20.90;99.90
15749;DHT22;7976;52.526;13.326;2023-06-22T02:07:52;20.90;99.90
15749;DHT22;7976;52.526;13.326;2023-06-22T02:10:27;20.90;99.90
15749;DHT22;7976;52.526;13.326;2023-06-22T02:12:57;20.90;99.90
15749;DHT22;7976;52.526;13.326;2023-06-22T02:15:26;20.90;99.90
15749;DHT22;7976;52.526;13.326;2023-06-22T02:17:55;20.90;99.90
15749;DHT22;7976;52.526;13.326;2023-06-22T02:20:23;20.90;99.90
15749;DHT22;7976;52.526;13.326;2023-06-22T02:22:50;20.90;99.90
15749;DHT22;7976;52.526;13.326;2023-06-22T02:25:17;20.90;99.90
15749;DHT22;7976;52.526;13.326;2023-06-22T02:27:45;20.90;99.90
15749;DHT22;7976;52.526;13.326;2023-06-22T02:30:12;20.90;99.90
15749;DHT22;7976;52.526;13.326;2023-06-22T02:32:41;20.90;99.90
15749;DHT22;7976;52.526;13.326;2023-06-22T02:35:10;20.90;99.90
15749;DHT22;7976;52.526;13.326;2023-06-22T02:37:38;20.90;99.90
15749;DHT22;7976;52.526;13.326;2023-06-22T02:40:08;20.90;99.90
15749;DHT22;7976;52.526;13.326;2023-06-22T02:42:36;20.90;99.90
15749;DHT22;7976;52.526;13.326;2023-06-22T02:45:03;21.00;99.90
15749;DHT22;7976;52.526;13.326;2023-06-22T02:47:31;20.90;99.90
15749;DHT22;7976;52.526;13.326;2023-06-22T02:49:58;21.00;99.90
15749;DHT22;7976;52.526;13.326;2023-06-22T02:52:27;21.00;99.90
15749;DHT22;7976;52.526;13.326;2023-06-22T02:54:53;21.00;99.90
15749;DHT22;7976;52.526;13.326;2023-06-22T02:57:20;21.00;99.90
15749;DHT22;7976;52.526;13.326;2023-06-22T02:59:47;21.00;99.90
15749;DHT22;7976;52.526;13.326;2023-06-22T03:02:14;21.00;99.90
15749;DHT22;7976;52.526;13.326;2023-06-22T03:04:41;21.00;99.90
15749;DHT22;7976;52.526;13.326;2023-06-22T03:07:09;21.00;99.90
15749;DHT22;7976;52.526;13.326;2023-06-22T03:09:37;21.00;99.90
15749;DHT22;7976;52.526;13.326;2023-06-22T03:12:04;21.00;99.90
15749;DHT22;7976;52.526;13.326;2023-06-22T03:14:52;21.00;99.90
15749;DHT22;7976;52.526;13.326;2023-06-22T03:17:19;21.00;99.90
15749;DHT22;7976;52.526;13.326;2023-06-22T03:19:46;21.00;99.90
15749;DHT22;7976;52.526;13.326;2023-06-22T03:22:12;21.00;99.90
15749;DHT22;7976;52.526;13.326;2023-06-22T03:24:41;21.00;99.90
15749;DHT22;7976;52.526;13.326;2023-06-22T03:27:08;21.00;99.90
15749;DHT22;7976;52.526;13.326;2023-06-22T03:29:35;21.00;99.90
15749;DHT22;7976;52.526;13.326;2023-06-22T03:32:02;21.00;99.90
15749;DHT22;7976;52.526;13.326;2023-06-22T03:34:31;21.00;99.90
15749;DHT22;7976;52.526;13.326;2023-06-22T03:36:59;21.00;99.90
15749;DHT22;7976;52.526;13.326;2023-06-22T03:39:26;21.00;99.90
15749;DHT22;7976;52.526;13.326;2023-06-22T03:41:54;21.00;99.90
15749;DHT22;7976;52.526;13.326;2023-06-22T03:44:23;21.00;99.90
15749;DHT22;7976;52.526;13.326;2023-06-22T03:46:50;21.10;99.90
15749;DHT22;7976;52.526;13.326;2023-06-22T03:49:18;21.10;99.90
15749;DHT22;7976;52.526;13.326;2023-06-22T03:51:45;21.10;99.90
15749;DHT22;7976;52.526;13.326;2023-06-22T03:54:12;21.10;99.90
15749;DHT22;7976;52.526;13.326;2023-06-22T03:56:39;21.10;99.90
15749;DHT22;7976;52.526;13.326;2023-06-22T03:59:07;21.10;99.90
15749;DHT22;7976;52.526;13.326;2023-06-22T04:01:34;21.10;99.90
15749;DHT22;7976;52.526;13.326;2023-06-22T04:04:02;21.10;99.90
15749;DHT22;7976;52.526;13.326;2023-06-22T04:06:29;21.10;99.90
15749;DHT22;7976;52.526;13.326;2023-06-22T04:08:55;21.10;99.90
15749;DHT22;7976;52.526;13.326;2023-06-22T04:11:22;21.10;99.90
15749;DHT22;7976;52.526;13.326;2023-06-22T04:13:49;21.10;99.90
15749;DHT22;7976;52.526;13.326;2023-06-22T04:16:18;21.10;99.90
15749;DHT22;7976;52.526;13.326;2023-06-22T04:18:45;21.10;99.90
15749;DHT22;7976;52.526;13.326;2023-06-22T04:21:12;21.20;99.90
15749;DHT22;7976;52.526;13.326;2023-06-22T04:23:40;21.20;99.90
15749;DHT22;7976;52.526;13.326;2023-06-22T04:26:07;21.20;99.90
15749;DHT22;7976;52.526;13.326;2023-06-22T04:28:34;21.20;99.90
15749;DHT22;7976;52.526;13.326;2023-06-22T04:31:01;21.20;99.90
15749;DHT22;7976;52.526;13.326;2023-06-22T04:33:29;21.30;99.90
15749;DHT22;7976;52.526;13.326;2023-06-22T04:35:56;21.30;99.90
15749;DHT22;7976;52.526;13.326;2023-06-22T04:38:26;21.30;99.90
15749;DHT22;7976;52.526;13.326;2023-06-22T04:40:53;21.40;99.90
15749;DHT22;7976;52.526;13.326;2023-06-22T04:43:20;21.40;99.90
15749;DHT22;7976;52.526;13.326;2023-06-22T04:45:47;21.50;99.90
15749;DHT22;7976;52.526;13.326;2023-06-22T04:48:17;21.50;99.90
15749;DHT22;7976;52.526;13.326;2023-06-22T04:50:46;21.50;99.90
15749;DHT22;7976;52.526;13.326;2023-06-22T04:53:13;21.60;99.90
15749;DHT22;7976;52.526;13.326;2023-06-22T04:55:39;21.70;99.90
15749;DHT22;7976;52.526;13.326;2023-06-22T04:58:11;21.70;99.90
15749;DHT22;7976;52.526;13.326;2023-06-22T05:00:38;21.80;99.90
15749;DHT22;7976;52.526;13.326;2023-06-22T05:03:05;21.90;99.90
15749;DHT22;7976;52.526;13.326;2023-06-22T05:05:36;22.00;99.90
15749;DHT22;7976;52.526;13.326;2023-06-22T05:08:04;22.10;99.90
15749;DHT22;7976;52.526;13.326;2023-06-22T05:10:32;22.20;99.90
15749;DHT22;7976;52.526;13.326;2023-06-22T05:12:59;22.20;99.90
15749;DHT22;7976;52.526;13.326;2023-06-22T05:15:26;22.20;99.90
15749;DHT22;7976;52.526;13.326;2023-06-22T05:17:56;22.30;99.90
15749;DHT22;7976;52.526;13.326;2023-06-22T05:20:23;22.30;99.90
15749;DHT22;7976;52.526;13.326;2023-06-22T05:22:50;22.30;99.90
15749;DHT22;7976;52.526;13.326;2023-06-22T05:25:19;22.40;99.90
15749;DHT22;7976;52.526;13.326;2023-06-22T05:27:46;22.40;99.90
15749;DHT22;7976;52.526;13.326;2023-06-22T05:30:13;22.40;99.90
15749;DHT22;7976;52.526;13.326;2023-06-22T05:32:41;22.40;99.90
15749;DHT22;7976;52.526;13.326;2023-06-22T05:35:09;22.40;99.90
15749;DHT22;7976;52.526;13.326;2023-06-22T05:37:36;22.30;99.90
15749;DHT22;7976;52.526;13.326;2023-06-22T05:40:04;22.40;99.90
15749;DHT22;7976;52.526;13.326;2023-06-22T05:42:34;22.40;99.90
15749;DHT22;7976;52.526;13.326;2023-06-22T05:45:00;22.40;99.90
15749;DHT22;7976;52.526;13.326;2023-06-22T05:47:27;22.50;99.90
15749;DHT22;7976;52.526;13.326;2023-06-22T05:49:54;22.50;99.90
15749;DHT22;7976;52.526;13.326;2023-06-22T05:52:21;22.60;99.90
15749;DHT22;7976;52.526;13.326;2023-06-22T05:54:48;22.70;99.90
15749;DHT22;7976;52.526;13.326;2023-06-22T05:57:14;22.80;99.90
15749;DHT22;7976;52.526;13.326;2023-06-22T05:59:43;22.80;99.90
15749;DHT22;7976;52.526;13.326;2023-06-22T06:02:09;22.80;99.90
15749;DHT22;7976;52.526;13.326;2023-06-22T06:04:36;22.90;99.90
15749;DHT22;7976;52.526;13.326;2023-06-22T06:07:03;22.80;99.90
15749;DHT22;7976;52.526;13.326;2023-06-22T06:09:30;22.80;99.90
15749;DHT22;7976;52.526;13.326;2023-06-22T06:11:57;22.80;99.90
15749;DHT22;7976;52.526;13.326;2023-06-22T06:14:24;22.80;99.90
15749;DHT22;7976;52.526;13.326;2023-06-22T06:16:52;22.90;99.90
15749;DHT22;7976;52.526;13.326;2023-06-22T06:19:19;23.00;99.90
15749;DHT22;7976;52.526;13.326;2023-06-22T06:21:45;23.00;99.90
15749;DHT22;7976;52.526;13.326;2023-06-22T06:24:12;23.10;99.90
15749;DHT22;7976;52.526;13.326;2023-06-22T06:26:39;23.10;99.90
15749;DHT22;7976;52.526;13.326;2023-06-22T06:29:06;23.20;99.90
15749;DHT22;7976;52.526;13.326;2023-06-22T06:31:33;23.20;99.90
15749;DHT22;7976;52.526;13.326;2023-06-22T06:34:01;23.30;99.90
15749;DHT22;7976;52.526;13.326;2023-06-22T06:36:29;23.40;99.90
15749;DHT22;7976;52.526;13.326;2023-06-22T06:38:57;23.40;99.90
15749;DHT22;7976;52.526;13.326;2023-06-22T06:41:24;23.50;99.90
15749;DHT22;7976;52.526;13.326;2023-06-22T06:43:51;23.60;99.90
15749;DHT22;7976;52.526;13.326;2023-06-22T06:46:19;23.60;99.90
15749;DHT22;7976;52.526;13.326;2023-06-22T06:48:47;23.70;99.90
15749;DHT22;7976;52.526;13.326;2023-06-22T06:51:15;23.70;99.90
15749;DHT22;7976;52.526;13.326;2023-06-22T06:53:42;23.90;99.90
15749;DHT22;7976;52.526;13.326;2023-06-22T06:56:09;23.80;99.90
15749;DHT22;7976;52.526;13.326;2023-06-22T06:58:36;23.80;99.90
15749;DHT22;7976;52.526;13.326;2023-06-22T07:01:03;23.80;99.90
15749;DHT22;7976;52.526;13.326;2023-06-22T07:03:30;23.90;99.90
15749;DHT22;7976;52.526;13.326;2023-06-22T07:05:58;23.90;99.90
15749;DHT22;7976;52.526;13.326;2023-06-22T07:08:26;24.10;99.90
15749;DHT22;7976;52.526;13.326;2023-06-22T07:10:54;24.20;99.90
15749;DHT22;7976;52.526;13.326;2023-06-22T07:13:21;24.40;99.90
15749;DHT22;7976;52.526;13.326;2023-06-22T07:15:48;24.60;99.90
15749;DHT22;7976;52.526;13.326;2023-06-22T07:18:14;24.80;99.90
15749;DHT22;7976;52.526;13.326;2023-06-22T07:20:41;24.90;99.90
15749;DHT22;7976;52.526;13.326;2023-06-22T07:23:08;25.00;99.90
15749;DHT22;7976;52.526;13.326;2023-06-22T07:25:36;25.00;99.90
15749;DHT22;7976;52.526;13.326;2023-06-22T07:28:06;25.10;99.90
15749;DHT22;7976;52.526;13.326;2023-06-22T07:30:34;25.30;99.90
15749;DHT22;7976;52.526;13.326;2023-06-22T07:33:01;25.40;99.90
15749;DHT22;7976;52.526;13.326;2023-06-22T07:35:29;25.50;99.90
15749;DHT22;7976;52.526;13.326;2023-06-22T07:37:56;25.40;99.90
15749;DHT22;7976;52.526;13.326;2023-06-22T07:40:23;25.40;99.90
15749;DHT22;7976;52.526;13.326;2023-06-22T07:42:52;25.40;99.90
15749;DHT22;7976;52.526;13.326;2023-06-22T07:45:19;25.40;99.90
15749;DHT22;7976;52.526;13.326;2023-06-22T07:47:45;25.40;99.90
15749;DHT22;7976;52.526;13.326;2023-06-22T07:50:12;25.50;99.90
15749;DHT22;7976;52.526;13.326;2023-06-22T07:52:39;25.50;99.90
15749;DHT22;7976;52.526;13.326;2023-06-22T07:55:06;25.60;99.90
15749;DHT22;7976;52.526;13.326;2023-06-22T07:57:34;25.50;99.90
15749;DHT22;7976;52.526;13.326;2023-06-22T08:00:04;25.50;99.90
15749;DHT22;7976;52.526;13.326;2023-06-22T08:02:38;25.50;99.90
15749;DHT22;7976;52.526;13.326;2023-06-22T08:05:06;25.50;99.90
15749;DHT22;7976;52.526;13.326;2023-06-22T08:07:34;25.50;99.90
15749;DHT22;7976;52.526;13.326;2023-06-22T08:10:00;25.60;99.90
15749;DHT22;7976;52.526;13.326;2023-06-22T08:12:28;25.80;99.90
15749;DHT22;7976;52.526;13.326;2023-06-22T08:14:55;26.00;99.90
15749;DHT22;7976;52.526;13.326;2023-06-22T08:17:23;26.10;99.90
15749;DHT22;7976;52.526;13.326;2023-06-22T08:19:54;26.10;99.90
15749;DHT22;7976;52.526;13.326;2023-06-22T08:22:21;26.00;99.90
15749;DHT22;7976;52.526;13.326;2023-06-22T08:24:47;26.00;99.90
15749;DHT22;7976;52.526;13.326;2023-06-22T08:27:14;26.00;99.90
15749;DHT22;7976;52.526;13.326;2023-06-22T08:29:42;25.90;99.90
15749;DHT22;7976;52.526;13.326;2023-06-22T08:32:11;25.80;99.90
15749;DHT22;7976;52.526;13.326;2023-06-22T08:34:39;25.80;99.90
15749;DHT22;7976;52.526;13.326;2023-06-22T08:37:07;25.80;99.90
15749;DHT22;7976;52.526;13.326;2023-06-22T08:39:34;25.80;99.90
15749;DHT22;7976;52.526;13.326;2023-06-22T08:42:01;25.80;99.90
15749;DHT22;7976;52.526;13.326;2023-06-22T08:44:27;25.90;99.90
15749;DHT22;7976;52.526;13.326;2023-06-22T08:46:54;25.90;99.90
15749;DHT22;7976;52.526;13.326;2023-06-22T08:49:21;25.90;99.90
15749;DHT22;7976;52.526;13.326;2023-06-22T08:51:49;25.90;99.90
15749;DHT22;7976;52.526;13.326;2023-06-22T08:54:18;25.80;99.90
15749;DHT22;7976;52.526;13.326;2023-06-22T08:56:45;25.80;99.90
15749;DHT22;7976;52.526;13.326;2023-06-22T08:59:12;25.80;99.90
15749;DHT22;7976;52.526;13.326;2023-06-22T09:01:39;25.70;99.90
15749;DHT22;7976;52.526;13.326;2023-06-22T09:04:05;25.70;99.90
15749;DHT22;7976;52.526;13.326;2023-06-22T09:06:34;25.80;99.90
15749;DHT22;7976;52.526;13.326;2023-06-22T09:09:04;25.80;99.90
15749;DHT22;7976;52.526;13.326;2023-06-22T09:11:31;25.90;99.90
15749;DHT22;7976;52.526;13.326;2023-06-22T09:13:58;26.10;99.90
15749;DHT22;7976;52.526;13.326;2023-06-22T09:16:25;26.20;99.90
15749;DHT22;7976;52.526;13.326;2023-06-22T09:18:51;26.20;99.90
15749;DHT22;7976;52.526;13.326;2023-06-22T09:21:18;26.30;99.90
15749;DHT22;7976;52.526;13.326;2023-06-22T09:23:45;26.30;99.90
15749;DHT22;7976;52.526;13.326;2023-06-22T09:26:17;26.30;99.90
15749;DHT22;7976;52.526;13.326;2023-06-22T09:28:43;26.40;99.90
15749;DHT22;7976;52.526;13.326;2023-06-22T09:31:10;26.50;99.90
15749;DHT22;7976;52.526;13.326;2023-06-22T09:33:39;26.60;99.90
15749;DHT22;7976;52.526;13.326;2023-06-22T09:36:07;26.60;99.90
15749;DHT22;7976;52.526;13.326;2023-06-22T09:38:34;26.60;99.90
15749;DHT22;7976;52.526;13.326;2023-06-22T09:41:01;26.70;99.90
15749;DHT22;7976;52.526;13.326;2023-06-22T09:43:31;26.60;99.90
15749;DHT22;7976;52.526;13.326;2023-06-22T09:46:00;26.60;99.90
15749;DHT22;7976;52.526;13.326;2023-06-22T09:48:27;26.50;99.90
15749;DHT22;7976;52.526;13.326;2023-06-22T09:50:54;26.50;99.90
15749;DHT22;7976;52.526;13.326;2023-06-22T09:53:21;26.40;99.90
15749;DHT22;7976;52.526;13.326;2023-06-22T09:55:48;26.40;99.90
15749;DHT22;7976;52.526;13.326;2023-06-22T09:58:15;26.50;99.90
15749;DHT22;7976;52.526;13.326;2023-06-22T10:00:43;26.50;99.90
15749;DHT22;7976;52.526;13.326;2023-06-22T10:03:10;26.70;99.90
15749;DHT22;7976;52.526;13.326;2023-06-22T10:05:36;26.80;99.90
15749;DHT22;7976;52.526;13.326;2023-06-22T10:08:03;26.90;99.90
15749;DHT22;7976;52.526;13.326;2023-06-22T10:10:30;27.00;99.90
15749;DHT22;7976;52.526;13.326;2023-06-22T10:13:02;27.00;99.90
15749;DHT22;7976;52.526;13.326;2023-06-22T10:15:34;27.10;99.90
15749;DHT22;7976;52.526;13.326;2023-06-22T10:18:02;27.10;99.90
15749;DHT22;7976;52.526;13.326;2023-06-22T10:20:29;27.20;99.90
15749;DHT22;7976;52.526;13.326;2023-06-22T10:22:56;27.30;99.90
15749;DHT22;7976;52.526;13.326;2023-06-22T10:25:23;27.50;99.90
15749;DHT22;7976;52.526;13.326;2023-06-22T10:27:50;27.70;99.90
15749;DHT22;7976;52.526;13.326;2023-06-22T10:30:17;27.90;99.90
15749;DHT22;7976;52.526;13.326;2023-06-22T10:32:44;28.00;99.90
15749;DHT22;7976;52.526;13.326;2023-06-22T10:35:12;28.10;99.90
15749;DHT22;7976;52.526;13.326;2023-06-22T10:37:39;28.10;99.90
15749;DHT22;7976;52.526;13.326;2023-06-22T10:40:09;28.10;99.90
15749;DHT22;7976;52.526;13.326;2023-06-22T10:42:36;28.20;99.90
15749;DHT22;7976;52.526;13.326;2023-06-22T10:45:04;28.30;99.90
15749;DHT22;7976;52.526;13.326;2023-06-22T10:47:31;28.30;99.90
15749;DHT22;7976;52.526;13.326;2023-06-22T10:49:58;28.30;99.90
15749;DHT22;7976;52.526;13.326;2023-06-22T10:52:26;28.10;99.90
15749;DHT22;7976;52.526;13.326;2023-06-22T10:54:52;28.00;99.90
15749;DHT22;7976;52.526;13.326;2023-06-22T10:57:19;27.90;99.90
15749;DHT22;7976;52.526;13.326;2023-06-22T10:59:48;27.90;99.90
15749;DHT22;7976;52.526;13.326;2023-06-22T11:02:15;27.80;99.90
15749;DHT22;7976;52.526;13.326;2023-06-22T11:04:41;27.70;99.90
15749;DHT22;7976;52.526;13.326;2023-06-22T11:07:09;27.70;99.90
15749;DHT22;7976;52.526;13.326;2023-06-22T11:09:37;27.70;99.90
15749;DHT22;7976;52.526;13.326;2023-06-22T11:12:06;27.80;99.90
15749;DHT22;7976;52.526;13.326;2023-06-22T11:14:33;27.90;99.90
15749;DHT22;7976;52.526;13.326;2023-06-22T11:17:00;28.00;99.90
15749;DHT22;7976;52.526;13.326;2023-06-22T11:19:27;28.00;99.90
15749;DHT22;7976;52.526;13.326;2023-06-22T11:21:53;27.90;99.90
15749;DHT22;7976;52.526;13.326;2023-06-22T11:24:20;27.80;99.90
15749;DHT22;7976;52.526;13.326;2023-06-22T11:26:49;27.80;99.90
15749;DHT22;7976;52.526;13.326;2023-06-22T11:29:15;27.70;99.90
15749;DHT22;7976;52.526;13.326;2023-06-22T11:31:42;27.80;99.90
15749;DHT22;7976;52.526;13.326;2023-06-22T11:34:09;27.90;99.90
15749;DHT22;7976;52.526;13.326;2023-06-22T11:36:36;27.90;99.90
15749;DHT22;7976;52.526;13.326;2023-06-22T11:39:03;28.00;99.90
15749;DHT22;7976;52.526;13.326;2023-06-22T11:41:31;28.10;99.90
15749;DHT22;7976;52.526;13.326;2023-06-22T11:43:59;28.20;99.90
15749;DHT22;7976;52.526;13.326;2023-06-22T11:46:26;28.10;99.90
15749;DHT22;7976;52.526;13.326;2023-06-22T11:48:53;28.20;99.90
15749;DHT22;7976;52.526;13.326;2023-06-22T11:51:19;28.20;99.90
15749;DHT22;7976;52.526;13.326;2023-06-22T11:53:46;28.10;99.90
15749;DHT22;7976;52.526;13.326;2023-06-22T11:56:13;28.00;99.90
15749;DHT22;7976;52.526;13.326;2023-06-22T11:58:40;27.90;99.90
15749;DHT22;7976;52.526;13.326;2023-06-22T12:01:08;27.80;99.90
15749;DHT22;7976;52.526;13.326;2023-06-22T12:03:34;27.80;99.90
15749;DHT22;7976;52.526;13.326;2023-06-22T12:06:01;27.90;99.90
15749;DHT22;7976;52.526;13.326;2023-06-22T12:08:28;28.00;99.90
15749;DHT22;7976;52.526;13.326;2023-06-22T12:10:55;28.20;99.90
15749;DHT22;7976;52.526;13.326;2023-06-22T12:13:22;28.20;99.90
15749;DHT22;7976;52.526;13.326;2023-06-22T12:15:48;28.20;99.90
15749;DHT22;7976;52.526;13.326;2023-06-22T12:18:18;28.30;99.90
15749;DHT22;7976;52.526;13.326;2023-06-22T12:20:46;28.40;99.90
15749;DHT22;7976;52.526;13.326;2023-06-22T12:23:14;28.50;99.90
15749;DHT22;7976;52.526;13.326;2023-06-22T12:25:41;28.60;99.90
15749;DHT22;7976;52.526;13.326;2023-06-22T12:28:08;28.80;99.90
15749;DHT22;7976;52.526;13.326;2023-06-22T12:30:35;28.90;99.90
15749;DHT22;7976;52.526;13.326;2023-06-22T12:33:02;28.90;99.90
15749;DHT22;7976;52.526;13.326;2023-06-22T12:35:30;28.90;99.90
15749;DHT22;7976;52.526;13.326;2023-06-22T12:37:56;28.90;99.90
15749;DHT22;7976;52.526;13.326;2023-06-22T12:40:24;28.80;99.90
15749;DHT22;7976;52.526;13.326;2023-06-22T12:42:51;28.80;99.90
15749;DHT22;7976;52.526;13.326;2023-06-22T12:45:17;28.70;99.90
15749;DHT22;7976;52.526;13.326;2023-06-22T12:47:46;28.60;99.90
15749;DHT22;7976;52.526;13.326;2023-06-22T12:50:15;28.50;99.90
15749;DHT22;7976;52.526;13.326;2023-06-22T12:52:43;28.50;99.90
15749;DHT22;7976;52.526;13.326;2023-06-22T12:55:10;28.40;99.90
15749;DHT22;7976;52.526;13.326;2023-06-22T12:57:37;28.50;99.90
15749;DHT22;7976;52.526;13.326;2023-06-22T13:00:05;28.50;99.90
15749;DHT22;7976;52.526;13.326;2023-06-22T13:02:34;28.50;99.90
15749;DHT22;7976;52.526;13.326;2023-06-22T13:05:01;28.60;99.90
15749;DHT22;7976;52.526;13.326;2023-06-22T13:07:30;28.80;99.90
15749;DHT22;7976;52.526;13.326;2023-06-22T13:09:58;29.00;99.90
15749;DHT22;7976;52.526;13.326;2023-06-22T13:12:25;29.10;99.80
15749;DHT22;7976;52.526;13.326;2023-06-22T13:14:52;29.00;99.90
15749;DHT22;7976;52.526;13.326;2023-06-22T13:17:20;29.10;99.80
15749;DHT22;7976;52.526;13.326;2023-06-22T13:19:47;29.20;99.90
15749;DHT22;7976;52.526;13.326;2023-06-22T13:22:27;29.30;99.90
15749;DHT22;7976;52.526;13.326;2023-06-22T13:24:55;29.30;99.50
15749;DHT22;7976;52.526;13.326;2023-06-22T13:27:24;29.20;99.50
15749;DHT22;7976;52.526;13.326;2023-06-22T13:29:52;29.10;99.50
15749;DHT22;7976;52.526;13.326;2023-06-22T13:32:19;29.10;99.60
15749;DHT22;7976;52.526;13.326;2023-06-22T13:34:46;29.20;99.60
15749;DHT22;7976;52.526;13.326;2023-06-22T13:37:12;29.20;99.50
15749;DHT22;7976;52.526;13.326;2023-06-22T13:39:39;29.20;99.50
15749;DHT22;7976;52.526;13.326;2023-06-22T13:42:07;29.30;99.60
15749;DHT22;7976;52.526;13.326;2023-06-22T13:44:35;29.30;99.10
15749;DHT22;7976;52.526;13.326;2023-06-22T13:47:02;29.30;99.20
15749;DHT22;7976;52.526;13.326;2023-06-22T13:49:30;29.10;99.20
15749;DHT22;7976;52.526;13.326;2023-06-22T13:51:56;29.10;99.10
15749;DHT22;7976;52.526;13.326;2023-06-22T13:54:23;29.00;99.00
15749;DHT22;7976;52.526;13.326;2023-06-22T13:56:50;28.90;99.20
15749;DHT22;7976;52.526;13.326;2023-06-22T13:59:17;28.90;99.40
15749;DHT22;7976;52.526;13.326;2023-06-22T14:01:46;29.00;99.30
15749;DHT22;7976;52.526;13.326;2023-06-22T14:04:13;29.00;99.20
15749;DHT22;7976;52.526;13.326;2023-06-22T14:06:40;29.00;99.20
15749;DHT22;7976;52.526;13.326;2023-06-22T14:09:06;29.00;99.20
15749;DHT22;7976;52.526;13.326;2023-06-22T14:11:33;29.00;99.20
15749;DHT22;7976;52.526;13.326;2023-06-22T14:14:00;29.00;99.10
15749;DHT22;7976;52.526;13.326;2023-06-22T14:16:27;28.90;99.10
15749;DHT22;7976;52.526;13.326;2023-06-22T14:18:55;28.90;99.20
15749;DHT22;7976;52.526;13.326;2023-06-22T14:21:21;28.90;99.30
15749;DHT22;7976;52.526;13.326;2023-06-22T14:23:48;28.90;99.40
15749;DHT22;7976;52.526;13.326;2023-06-22T14:26:15;29.00;99.20
15749;DHT22;7976;52.526;13.326;2023-06-22T14:28:44;29.00;99.30
15749;DHT22;7976;52.526;13.326;2023-06-22T14:31:14;29.10;99.10
15749;DHT22;7976;52.526;13.326;2023-06-22T14:33:41;29.10;99.00
15749;DHT22;7976;52.526;13.326;2023-06-22T14:36:11;29.10;99.00
15749;DHT22;7976;52.526;13.326;2023-06-22T14:38:38;29.00;98.90
15749;DHT22;7976;52.526;13.326;2023-06-22T14:41:04;29.00;98.90
15749;DHT22;7976;52.526;13.326;2023-06-22T14:43:31;29.00;98.90
15749;DHT22;7976;52.526;13.326;2023-06-22T14:45:58;29.00;99.00
15749;DHT22;7976;52.526;13.326;2023-06-22T14:48:25;29.00;98.90
15749;DHT22;7976;52.526;13.326;2023-06-22T14:50:52;28.90;99.00
15749;DHT22;7976;52.526;13.326;2023-06-22T14:53:21;29.00;99.10
15749;DHT22;7976;52.526;13.326;2023-06-22T14:55:48;29.00;99.20
15749;DHT22;7976;52.526;13.326;2023-06-22T14:58:15;29.00;99.10
15749;DHT22;7976;52.526;13.326;2023-06-22T15:00:42;29.00;99.10
15749;DHT22;7976;52.526;13.326;2023-06-22T15:03:08;29.10;99.10
15749;DHT22;7976;52.526;13.326;2023-06-22T15:05:42;29.10;99.00
15749;DHT22;7976;52.526;13.326;2023-06-22T15:08:09;29.10;98.70
15749;DHT22;7976;52.526;13.326;2023-06-22T15:10:38;29.00;99.00
15749;DHT22;7976;52.526;13.326;2023-06-22T15:13:05;29.00;98.80
15749;DHT22;7976;52.526;13.326;2023-06-22T15:15:31;29.00;99.00
15749;DHT22;7976;52.526;13.326;2023-06-22T15:17:59;29.00;99.00
15749;DHT22;7976;52.526;13.326;2023-06-22T15:20:25;28.90;99.00
15749;DHT22;7976;52.526;13.326;2023-06-22T15:22:52;28.90;98.90
15749;DHT22;7976;52.526;13.326;2023-06-22T15:25:20;28.90;99.00
15749;DHT22;7976;52.526;13.326;2023-06-22T15:27:48;28.90;99.00
15749;DHT22;7976;52.526;13.326;2023-06-22T15:30:15;28.90;99.10
15749;DHT22;7976;52.526;13.326;2023-06-22T15:32:42;28.90;99.10
15749;DHT22;7976;52.526;13.326;2023-06-22T15:35:10;28.90;99.00